sensor_id;sensor_type;location;lat;lon;timestamp;pressure;altitude;pressure_sealevel;temperature;humidity
57847;BME280;43675;50.030;21.952;2023-04-04T00:00:31;99235.13;;;-1.99;67.96
57847;BME280;43675;50.030;21.952;2023-04-04T00:03:14;99234.66;;;-2.00;68.15
57847;BME280;43675;50.030;21.952;2023-04-04T00:05:40;99236.44;;;-2.00;68.27
57847;BME280;43675;50.030;21.952;2023-04-04T00:08:06;99238.33;;;-2.02;68.13
57847;BME280;43675;50.030;21.952;2023-04-04T00:10:33;99235.14;;;-2.04;68.13
57847;BME280;43675;50.030;21.952;2023-04-04T00:12:59;99237.63;;;-2.07;68.32
57847;BME280;43675;50.030;21.952;2023-04-04T00:15:26;99238.91;;;-2.09;68.24
57847;BME280;43675;50.030;21.952;2023-04-04T00:17:52;99236.68;;;-2.12;68.31
57847;BME280;43675;50.030;21.952;2023-04-04T00:20:18;99230.99;;;-2.16;68.40
57847;BME280;43675;50.030;21.952;2023-04-04T00:22:45;99235.61;;;-2.18;68.28
57847;BME280;43675;50.030;21.952;2023-04-04T00:25:11;99237.79;;;-2.22;68.55
57847;BME280;43675;50.030;21.952;2023-04-04T00:27:38;99239.33;;;-2.25;68.53
57847;BME280;43675;50.030;21.952;2023-04-04T00:30:05;99238.32;;;-2.30;68.60
57847;BME280;43675;50.030;21.952;2023-04-04T00:32:31;99252.41;;;-2.36;68.49
57847;BME280;43675;50.030;21.952;2023-04-04T00:34:58;99258.75;;;-2.43;68.56
57847;BME280;43675;50.030;21.952;2023-04-04T00:37:24;99257.94;;;-2.51;68.41
57847;BME280;43675;50.030;21.952;2023-04-04T00:39:50;99257.46;;;-2.56;68.64
57847;BME280;43675;50.030;21.952;2023-04-04T00:42:17;99256.77;;;-2.60;68.65
57847;BME280;43675;50.030;21.952;2023-04-04T00:44:43;99255.55;;;-2.63;68.51
57847;BME280;43675;50.030;21.952;2023-04-04T00:47:10;99254.42;;;-2.64;68.74
57847;BME280;43675;50.030;21.952;2023-04-04T00:49:36;99252.50;;;-2.64;68.86
57847;BME280;43675;50.030;21.952;2023-04-04T00:52:03;99254.84;;;-2.63;68.79
57847;BME280;43675;50.030;21.952;2023-04-04T00:54:29;99253.14;;;-2.61;68.71
57847;BME280;43675;50.030;21.952;2023-04-04T00:56:56;99257.16;;;-2.58;68.93
57847;BME280;43675;50.030;21.952;2023-04-04T00:59:22;99257.42;;;-2.57;68.80
57847;BME280;43675;50.030;21.952;2023-04-04T01:01:51;99258.97;;;-2.57;69.04
57847;BME280;43675;50.030;21.952;2023-04-04T01:04:17;99262.39;;;-2.54;68.93
57847;BME280;43675;50.030;21.952;2023-04-04T01:06:44;99261.73;;;-2.52;68.95
57847;BME280;43675;50.030;21.952;2023-04-04T01:09:11;99262.30;;;-2.50;69.16
57847;BME280;43675;50.030;21.952;2023-04-04T01:11:37;99260.16;;;-2.50;69.22
57847;BME280;43675;50.030;21.952;2023-04-04T01:14:04;99253.61;;;-2.49;69.27
57847;BME280;43675;50.030;21.952;2023-04-04T01:16:30;99251.05;;;-2.47;69.22
57847;BME280;43675;50.030;21.952;2023-04-04T01:18:57;99248.39;;;-2.47;69.43
57847;BME280;43675;50.030;21.952;2023-04-04T01:21:23;99249.40;;;-2.47;69.44
57847;BME280;43675;50.030;21.952;2023-04-04T01:23:54;99247.58;;;-2.46;69.46
57847;BME280;43675;50.030;21.952;2023-04-04T01:26:23;99251.06;;;-2.46;69.50
57847;BME280;43675;50.030;21.952;2023-04-04T01:28:50;99248.08;;;-2.46;69.54
57847;BME280;43675;50.030;21.952;2023-04-04T01:31:17;99248.23;;;-2.45;69.68
57847;BME280;43675;50.030;21.952;2023-04-04T01:33:49;99244.73;;;-2.45;69.65
57847;BME280;43675;50.030;21.952;2023-04-04T01:36:24;99239.98;;;-2.43;69.60
57847;BME280;43675;50.030;21.952;2023-04-04T01:41:32;99236.09;;;-2.38;69.64
57847;BME280;43675;50.030;21.952;2023-04-04T01:43:59;99226.48;;;-2.36;69.64
57847;BME280;43675;50.030;21.952;2023-04-04T01:46:25;99223.27;;;-2.35;69.60
57847;BME280;43675;50.030;21.952;2023-04-04T01:48:52;99226.80;;;-2.33;69.62
57847;BME280;43675;50.030;21.952;2023-04-04T01:51:18;99226.17;;;-2.30;69.82
57847;BME280;43675;50.030;21.952;2023-04-04T01:53:46;99227.95;;;-2.26;69.73
57847;BME280;43675;50.030;21.952;2023-04-04T01:56:12;99224.02;;;-2.20;69.71
57847;BME280;43675;50.030;21.952;2023-04-04T01:58:38;99230.02;;;-2.14;69.69
57847;BME280;43675;50.030;21.952;2023-04-04T02:01:05;99221.27;;;-2.08;69.57
57847;BME280;43675;50.030;21.952;2023-04-04T02:03:31;99226.70;;;-1.99;69.59
57847;BME280;43675;50.030;21.952;2023-04-04T02:05:58;99227.23;;;-1.93;69.21
57847;BME280;43675;50.030;21.952;2023-04-04T02:08:24;99229.41;;;-1.87;69.25
57847;BME280;43675;50.030;21.952;2023-04-04T02:10:50;99233.84;;;-1.83;69.11
57847;BME280;43675;50.030;21.952;2023-04-04T02:13:17;99236.61;;;-1.80;69.25
57847;BME280;43675;50.030;21.952;2023-04-04T02:15:43;99238.59;;;-1.79;69.34
57847;BME280;43675;50.030;21.952;2023-04-04T02:18:10;99238.70;;;-1.78;69.09
57847;BME280;43675;50.030;21.952;2023-04-04T02:20:36;99239.50;;;-1.77;68.95
57847;BME280;43675;50.030;21.952;2023-04-04T02:23:02;99242.77;;;-1.76;69.17
57847;BME280;43675;50.030;21.952;2023-04-04T02:25:29;99244.24;;;-1.75;69.01
57847;BME280;43675;50.030;21.952;2023-04-04T02:27:55;99245.17;;;-1.76;69.11
57847;BME280;43675;50.030;21.952;2023-04-04T02:30:22;99247.17;;;-1.77;69.19
57847;BME280;43675;50.030;21.952;2023-04-04T02:32:48;99244.92;;;-1.77;69.05
57847;BME280;43675;50.030;21.952;2023-04-04T02:35:14;99249.19;;;-1.78;69.27
57847;BME280;43675;50.030;21.952;2023-04-04T02:37:42;99247.34;;;-1.79;69.02
57847;BME280;43675;50.030;21.952;2023-04-04T02:40:09;99244.18;;;-1.79;69.10
57847;BME280;43675;50.030;21.952;2023-04-04T02:42:36;99243.77;;;-1.78;69.19
57847;BME280;43675;50.030;21.952;2023-04-04T02:45:02;99240.25;;;-1.76;69.54
57847;BME280;43675;50.030;21.952;2023-04-04T02:47:29;99235.21;;;-1.74;68.98
57847;BME280;43675;50.030;21.952;2023-04-04T02:49:55;99230.67;;;-1.72;69.10
57847;BME280;43675;50.030;21.952;2023-04-04T02:52:22;99229.08;;;-1.70;69.26
57847;BME280;43675;50.030;21.952;2023-04-04T02:54:48;99231.67;;;-1.68;69.20
57847;BME280;43675;50.030;21.952;2023-04-04T02:57:14;99230.02;;;-1.65;69.13
57847;BME280;43675;50.030;21.952;2023-04-04T02:59:41;99225.65;;;-1.60;68.98
57847;BME280;43675;50.030;21.952;2023-04-04T03:02:07;99222.83;;;-1.56;69.04
57847;BME280;43675;50.030;21.952;2023-04-04T03:04:33;99220.50;;;-1.53;69.08
57847;BME280;43675;50.030;21.952;2023-04-04T03:07:00;99222.98;;;-1.52;68.93
57847;BME280;43675;50.030;21.952;2023-04-04T03:09:26;99217.58;;;-1.50;68.97
57847;BME280;43675;50.030;21.952;2023-04-04T03:11:53;99214.78;;;-1.48;69.22
57847;BME280;43675;50.030;21.952;2023-04-04T03:14:19;99212.31;;;-1.46;68.82
57847;BME280;43675;50.030;21.952;2023-04-04T03:16:46;99211.37;;;-1.42;68.90
57847;BME280;43675;50.030;21.952;2023-04-04T03:19:12;99209.07;;;-1.40;68.85
57847;BME280;43675;50.030;21.952;2023-04-04T03:21:39;99208.79;;;-1.39;68.97
57847;BME280;43675;50.030;21.952;2023-04-04T03:24:05;99202.27;;;-1.39;68.89
57847;BME280;43675;50.030;21.952;2023-04-04T03:26:32;99201.08;;;-1.39;68.87
57847;BME280;43675;50.030;21.952;2023-04-04T03:28:58;99196.92;;;-1.40;68.43
57847;BME280;43675;50.030;21.952;2023-04-04T03:31:25;99202.73;;;-1.40;68.73
57847;BME280;43675;50.030;21.952;2023-04-04T03:33:51;99193.41;;;-1.42;68.71
57847;BME280;43675;50.030;21.952;2023-04-04T03:36:17;99193.98;;;-1.42;68.74
57847;BME280;43675;50.030;21.952;2023-04-04T03:38:44;99192.00;;;-1.44;68.71
57847;BME280;43675;50.030;21.952;2023-04-04T03:41:11;99188.26;;;-1.46;68.88
57847;BME280;43675;50.030;21.952;2023-04-04T03:43:37;99183.77;;;-1.46;68.87
57847;BME280;43675;50.030;21.952;2023-04-04T03:46:04;99176.88;;;-1.48;68.62
57847;BME280;43675;50.030;21.952;2023-04-04T03:48:31;99178.92;;;-1.49;68.61
57847;BME280;43675;50.030;21.952;2023-04-04T03:50:58;99177.73;;;-1.50;68.71
57847;BME280;43675;50.030;21.952;2023-04-04T03:53:25;99179.71;;;-1.50;68.79
57847;BME280;43675;50.030;21.952;2023-04-04T03:55:51;99178.39;;;-1.51;68.65
57847;BME280;43675;50.030;21.952;2023-04-04T03:58:20;99180.55;;;-1.52;68.78
57847;BME280;43675;50.030;21.952;2023-04-04T04:00:46;99183.63;;;-1.53;68.74
57847;BME280;43675;50.030;21.952;2023-04-04T04:03:13;99188.85;;;-1.55;68.44
57847;BME280;43675;50.030;21.952;2023-04-04T04:05:40;99191.73;;;-1.56;68.68
57847;BME280;43675;50.030;21.952;2023-04-04T04:08:06;99191.23;;;-1.56;68.51
57847;BME280;43675;50.030;21.952;2023-04-04T04:10:32;99195.73;;;-1.55;68.65
57847;BME280;43675;50.030;21.952;2023-04-04T04:12:59;99195.15;;;-1.54;68.88
57847;BME280;43675;50.030;21.952;2023-04-04T04:15:25;99194.68;;;-1.53;68.73
57847;BME280;43675;50.030;21.952;2023-04-04T04:17:52;99191.76;;;-1.52;68.63
57847;BME280;43675;50.030;21.952;2023-04-04T04:20:18;99192.77;;;-1.49;68.86
57847;BME280;43675;50.030;21.952;2023-04-04T04:22:45;99192.38;;;-1.46;68.75
57847;BME280;43675;50.030;21.952;2023-04-04T04:25:12;99194.66;;;-1.45;68.90
57847;BME280;43675;50.030;21.952;2023-04-04T04:27:38;99194.85;;;-1.42;68.86
57847;BME280;43675;50.030;21.952;2023-04-04T04:30:05;99198.14;;;-1.40;68.80
57847;BME280;43675;50.030;21.952;2023-04-04T04:32:31;99197.83;;;-1.38;68.72
57847;BME280;43675;50.030;21.952;2023-04-04T04:34:58;99200.52;;;-1.36;68.88
57847;BME280;43675;50.030;21.952;2023-04-04T04:37:24;99199.14;;;-1.35;68.68
57847;BME280;43675;50.030;21.952;2023-04-04T04:39:51;99208.02;;;-1.32;68.76
57847;BME280;43675;50.030;21.952;2023-04-04T04:42:18;99206.14;;;-1.28;68.58
57847;BME280;43675;50.030;21.952;2023-04-04T04:44:44;99209.84;;;-1.24;68.75
57847;BME280;43675;50.030;21.952;2023-04-04T04:47:10;99208.27;;;-1.20;68.61
57847;BME280;43675;50.030;21.952;2023-04-04T04:49:37;99210.58;;;-1.16;68.63
57847;BME280;43675;50.030;21.952;2023-04-04T04:52:03;99218.56;;;-1.11;68.49
57847;BME280;43675;50.030;21.952;2023-04-04T04:54:30;99221.53;;;-1.07;68.30
57847;BME280;43675;50.030;21.952;2023-04-04T04:56:56;99224.38;;;-1.03;68.42
57847;BME280;43675;50.030;21.952;2023-04-04T04:59:22;99229.03;;;-0.98;68.41
57847;BME280;43675;50.030;21.952;2023-04-04T05:01:49;99227.05;;;-0.91;68.15
57847;BME280;43675;50.030;21.952;2023-04-04T05:04:15;99231.17;;;-0.84;68.06
57847;BME280;43675;50.030;21.952;2023-04-04T05:06:42;99236.11;;;-0.78;68.02
57847;BME280;43675;50.030;21.952;2023-04-04T05:09:08;99233.92;;;-0.75;67.94
57847;BME280;43675;50.030;21.952;2023-04-04T05:11:34;99243.92;;;-0.71;67.95
57847;BME280;43675;50.030;21.952;2023-04-04T05:14:01;99241.73;;;-0.67;68.02
57847;BME280;43675;50.030;21.952;2023-04-04T05:16:27;99240.67;;;-0.63;67.90
57847;BME280;43675;50.030;21.952;2023-04-04T05:18:53;99244.50;;;-0.59;67.82
57847;BME280;43675;50.030;21.952;2023-04-04T05:21:20;99246.38;;;-0.56;67.70
57847;BME280;43675;50.030;21.952;2023-04-04T05:23:46;99247.06;;;-0.52;67.76
57847;BME280;43675;50.030;21.952;2023-04-04T05:26:13;99249.83;;;-0.47;67.82
57847;BME280;43675;50.030;21.952;2023-04-04T05:28:39;99243.27;;;-0.42;67.72
57847;BME280;43675;50.030;21.952;2023-04-04T05:31:05;99240.92;;;-0.36;67.80
57847;BME280;43675;50.030;21.952;2023-04-04T05:33:32;99244.23;;;-0.27;67.77
57847;BME280;43675;50.030;21.952;2023-04-04T05:35:58;99237.98;;;-0.24;67.56
57847;BME280;43675;50.030;21.952;2023-04-04T05:38:25;99229.38;;;-0.22;67.58
57847;BME280;43675;50.030;21.952;2023-04-04T05:40:52;99232.42;;;-0.19;67.45
57847;BME280;43675;50.030;21.952;2023-04-04T05:43:18;99233.94;;;-0.12;67.52
57847;BME280;43675;50.030;21.952;2023-04-04T05:45:45;99229.55;;;-0.06;67.32
57847;BME280;43675;50.030;21.952;2023-04-04T05:48:11;99232.65;;;-0.02;67.01
57847;BME280;43675;50.030;21.952;2023-04-04T05:50:37;99238.36;;;0.04;67.03
57847;BME280;43675;50.030;21.952;2023-04-04T05:53:04;99239.19;;;0.10;66.98
57847;BME280;43675;50.030;21.952;2023-04-04T05:55:30;99241.92;;;0.17;66.75
57847;BME280;43675;50.030;21.952;2023-04-04T05:57:56;99242.88;;;0.24;66.80
57847;BME280;43675;50.030;21.952;2023-04-04T06:00:23;99242.09;;;0.31;66.69
57847;BME280;43675;50.030;21.952;2023-04-04T06:02:49;99235.58;;;0.41;66.52
57847;BME280;43675;50.030;21.952;2023-04-04T06:05:16;99233.26;;;0.47;66.33
57847;BME280;43675;50.030;21.952;2023-04-04T06:07:42;99233.30;;;0.48;66.11
57847;BME280;43675;50.030;21.952;2023-04-04T06:10:09;99232.95;;;0.52;66.06
57847;BME280;43675;50.030;21.952;2023-04-04T06:12:35;99229.36;;;0.62;66.12
57847;BME280;43675;50.030;21.952;2023-04-04T06:15:02;99230.30;;;0.73;66.03
57847;BME280;43675;50.030;21.952;2023-04-04T06:17:28;99229.73;;;0.82;65.95
57847;BME280;43675;50.030;21.952;2023-04-04T06:19:54;99231.87;;;0.87;65.70
57847;BME280;43675;50.030;21.952;2023-04-04T06:22:21;99227.80;;;0.87;65.56
57847;BME280;43675;50.030;21.952;2023-04-04T06:24:47;99228.53;;;0.93;65.62
57847;BME280;43675;50.030;21.952;2023-04-04T06:27:14;99228.81;;;1.01;65.51
57847;BME280;43675;50.030;21.952;2023-04-04T06:29:40;99226.25;;;1.12;65.55
57847;BME280;43675;50.030;21.952;2023-04-04T06:32:06;99228.42;;;1.21;65.46
57847;BME280;43675;50.030;21.952;2023-04-04T06:34:33;99224.79;;;1.29;65.29
57847;BME280;43675;50.030;21.952;2023-04-04T06:36:59;99227.42;;;1.35;65.15
57847;BME280;43675;50.030;21.952;2023-04-04T06:39:26;99230.52;;;1.41;65.10
57847;BME280;43675;50.030;21.952;2023-04-04T06:41:52;99228.84;;;1.48;65.07
57847;BME280;43675;50.030;21.952;2023-04-04T06:44:18;99229.95;;;1.55;64.80
57847;BME280;43675;50.030;21.952;2023-04-04T06:46:45;99228.70;;;1.62;64.90
57847;BME280;43675;50.030;21.952;2023-04-04T06:49:11;99231.77;;;1.69;64.65
57847;BME280;43675;50.030;21.952;2023-04-04T06:51:38;99227.73;;;1.73;64.60
57847;BME280;43675;50.030;21.952;2023-04-04T06:54:05;99225.90;;;1.80;64.52
57847;BME280;43675;50.030;21.952;2023-04-04T06:56:32;99221.75;;;1.85;64.28
57847;BME280;43675;50.030;21.952;2023-04-04T06:58:58;99233.27;;;1.82;64.04
57847;BME280;43675;50.030;21.952;2023-04-04T07:01:24;99239.50;;;1.80;63.93
57847;BME280;43675;50.030;21.952;2023-04-04T07:03:54;99243.53;;;1.73;63.81
57847;BME280;43675;50.030;21.952;2023-04-04T07:06:21;99244.49;;;1.72;63.93
57847;BME280;43675;50.030;21.952;2023-04-04T07:08:47;99248.15;;;1.75;63.88
57847;BME280;43675;50.030;21.952;2023-04-04T07:11:13;99243.77;;;1.83;63.65
57847;BME280;43675;50.030;21.952;2023-04-04T07:13:40;99242.17;;;2.02;63.86
57847;BME280;43675;50.030;21.952;2023-04-04T07:16:06;99243.73;;;2.19;63.68
57847;BME280;43675;50.030;21.952;2023-04-04T07:18:32;99245.51;;;2.39;63.60
57847;BME280;43675;50.030;21.952;2023-04-04T07:20:59;99247.23;;;2.50;63.35
57847;BME280;43675;50.030;21.952;2023-04-04T07:23:25;99244.91;;;2.61;62.97
57847;BME280;43675;50.030;21.952;2023-04-04T07:25:52;99242.02;;;2.74;62.46
57847;BME280;43675;50.030;21.952;2023-04-04T07:28:18;99243.10;;;2.84;62.32
57847;BME280;43675;50.030;21.952;2023-04-04T07:30:44;99241.34;;;2.93;62.19
57847;BME280;43675;50.030;21.952;2023-04-04T07:33:11;99237.20;;;3.01;62.22
57847;BME280;43675;50.030;21.952;2023-04-04T07:35:37;99234.97;;;3.11;61.96
57847;BME280;43675;50.030;21.952;2023-04-04T07:38:04;99233.48;;;3.15;61.90
57847;BME280;43675;50.030;21.952;2023-04-04T07:40:30;99233.41;;;3.15;61.70
57847;BME280;43675;50.030;21.952;2023-04-04T07:42:56;99227.06;;;3.10;61.33
57847;BME280;43675;50.030;21.952;2023-04-04T07:45:23;99232.48;;;3.00;61.41
57847;BME280;43675;50.030;21.952;2023-04-04T07:47:49;99234.36;;;2.82;61.20
57847;BME280;43675;50.030;21.952;2023-04-04T07:50:16;99231.05;;;2.65;61.29
57847;BME280;43675;50.030;21.952;2023-04-04T07:52:47;99231.18;;;2.49;61.29
57847;BME280;43675;50.030;21.952;2023-04-04T07:55:13;99230.02;;;2.33;61.27
57847;BME280;43675;50.030;21.952;2023-04-04T07:57:40;99219.49;;;2.16;61.01
57847;BME280;43675;50.030;21.952;2023-04-04T08:00:06;99219.51;;;2.03;60.93
57847;BME280;43675;50.030;21.952;2023-04-04T08:02:33;99219.63;;;1.95;61.23
57847;BME280;43675;50.030;21.952;2023-04-04T08:04:59;99213.60;;;1.89;60.92
57847;BME280;43675;50.030;21.952;2023-04-04T08:07:26;99218.75;;;1.88;60.73
57847;BME280;43675;50.030;21.952;2023-04-04T08:09:53;99206.49;;;1.88;60.57
57847;BME280;43675;50.030;21.952;2023-04-04T08:12:20;99204.48;;;1.94;60.42
57847;BME280;43675;50.030;21.952;2023-04-04T08:14:46;99191.92;;;2.07;60.54
57847;BME280;43675;50.030;21.952;2023-04-04T08:17:12;99187.55;;;2.27;60.38
57847;BME280;43675;50.030;21.952;2023-04-04T08:19:40;99184.30;;;2.50;59.98
57847;BME280;43675;50.030;21.952;2023-04-04T08:22:06;99187.04;;;2.74;59.70
57847;BME280;43675;50.030;21.952;2023-04-04T08:24:32;99188.19;;;2.93;59.33
57847;BME280;43675;50.030;21.952;2023-04-04T08:26:59;99187.50;;;3.08;58.86
57847;BME280;43675;50.030;21.952;2023-04-04T08:29:25;99185.10;;;3.28;58.97
57847;BME280;43675;50.030;21.952;2023-04-04T08:31:52;99182.94;;;3.49;58.95
57847;BME280;43675;50.030;21.952;2023-04-04T08:34:18;99178.66;;;3.60;58.23
57847;BME280;43675;50.030;21.952;2023-04-04T08:36:44;99179.55;;;3.61;57.91
57847;BME280;43675;50.030;21.952;2023-04-04T08:39:11;99173.06;;;3.57;57.39
57847;BME280;43675;50.030;21.952;2023-04-04T08:41:38;99173.55;;;3.49;57.15
57847;BME280;43675;50.030;21.952;2023-04-04T08:44:04;99179.65;;;3.40;56.57
57847;BME280;43675;50.030;21.952;2023-04-04T08:46:33;99173.02;;;3.37;56.74
57847;BME280;43675;50.030;21.952;2023-04-04T08:48:59;99172.83;;;3.43;56.70
57847;BME280;43675;50.030;21.952;2023-04-04T08:51:26;99175.34;;;3.47;56.41
57847;BME280;43675;50.030;21.952;2023-04-04T08:53:54;99175.57;;;3.43;55.87
57847;BME280;43675;50.030;21.952;2023-04-04T08:56:21;99175.33;;;3.47;55.67
57847;BME280;43675;50.030;21.952;2023-04-04T08:58:48;99177.21;;;3.51;55.25
57847;BME280;43675;50.030;21.952;2023-04-04T09:01:15;99181.25;;;3.50;55.13
57847;BME280;43675;50.030;21.952;2023-04-04T09:03:41;99190.98;;;3.43;54.86
57847;BME280;43675;50.030;21.952;2023-04-04T09:06:09;99195.61;;;3.29;54.05
57847;BME280;43675;50.030;21.952;2023-04-04T09:08:36;99196.39;;;3.13;53.65
57847;BME280;43675;50.030;21.952;2023-04-04T09:11:03;99191.47;;;2.99;53.92
57847;BME280;43675;50.030;21.952;2023-04-04T09:13:29;99198.33;;;2.94;53.87
57847;BME280;43675;50.030;21.952;2023-04-04T09:15:56;99198.94;;;2.91;53.53
57847;BME280;43675;50.030;21.952;2023-04-04T09:18:23;99187.19;;;2.96;53.66
57847;BME280;43675;50.030;21.952;2023-04-04T09:20:50;99186.65;;;3.13;53.65
57847;BME280;43675;50.030;21.952;2023-04-04T09:23:16;99175.31;;;3.37;54.16
57847;BME280;43675;50.030;21.952;2023-04-04T09:25:44;99174.23;;;3.66;54.02
57847;BME280;43675;50.030;21.952;2023-04-04T09:28:12;99174.69;;;3.94;53.55
57847;BME280;43675;50.030;21.952;2023-04-04T09:30:39;99169.22;;;4.15;53.09
57847;BME280;43675;50.030;21.952;2023-04-04T09:33:05;99167.64;;;4.39;53.03
57847;BME280;43675;50.030;21.952;2023-04-04T09:35:34;99180.04;;;4.58;52.78
57847;BME280;43675;50.030;21.952;2023-04-04T09:38:02;99186.84;;;4.59;52.26
57847;BME280;43675;50.030;21.952;2023-04-04T09:40:29;99184.79;;;4.57;51.90
57847;BME280;43675;50.030;21.952;2023-04-04T09:42:58;99190.60;;;4.52;51.72
57847;BME280;43675;50.030;21.952;2023-04-04T09:45:25;99187.93;;;4.46;51.42
57847;BME280;43675;50.030;21.952;2023-04-04T09:47:52;99186.97;;;4.48;51.54
57847;BME280;43675;50.030;21.952;2023-04-04T09:50:22;99183.96;;;4.60;51.44
57847;BME280;43675;50.030;21.952;2023-04-04T09:52:49;99181.48;;;4.74;51.40
57847;BME280;43675;50.030;21.952;2023-04-04T09:55:15;99178.23;;;4.83;51.02
57847;BME280;43675;50.030;21.952;2023-04-04T09:57:42;99178.77;;;4.89;51.02
57847;BME280;43675;50.030;21.952;2023-04-04T10:00:09;99181.66;;;5.00;51.11
57847;BME280;43675;50.030;21.952;2023-04-04T10:02:37;99181.16;;;5.05;50.78
57847;BME280;43675;50.030;21.952;2023-04-04T10:05:04;99179.45;;;5.14;51.12
57847;BME280;43675;50.030;21.952;2023-04-04T10:07:31;99171.89;;;5.24;51.00
57847;BME280;43675;50.030;21.952;2023-04-04T10:10:03;99174.02;;;5.29;50.96
57847;BME280;43675;50.030;21.952;2023-04-04T10:12:30;99173.30;;;5.23;50.67
57847;BME280;43675;50.030;21.952;2023-04-04T10:14:57;99172.48;;;5.06;50.86
57847;BME280;43675;50.030;21.952;2023-04-04T10:17:24;99170.39;;;4.93;50.92
57847;BME280;43675;50.030;21.952;2023-04-04T10:19:55;99164.54;;;4.88;51.07
57847;BME280;43675;50.030;21.952;2023-04-04T10:22:23;99161.91;;;4.96;51.14
57847;BME280;43675;50.030;21.952;2023-04-04T10:24:50;99160.40;;;5.11;51.22
57847;BME280;43675;50.030;21.952;2023-04-04T10:27:16;99159.16;;;5.24;50.94
57847;BME280;43675;50.030;21.952;2023-04-04T10:29:43;99153.95;;;5.26;50.80
57847;BME280;43675;50.030;21.952;2023-04-04T10:32:10;99152.37;;;5.26;50.36
57847;BME280;43675;50.030;21.952;2023-04-04T10:34:42;99155.17;;;5.17;49.88
57847;BME280;43675;50.030;21.952;2023-04-04T10:37:18;99151.77;;;5.09;49.75
57847;BME280;43675;50.030;21.952;2023-04-04T10:39:49;99148.40;;;5.11;49.79
57847;BME280;43675;50.030;21.952;2023-04-04T10:42:17;99152.02;;;5.20;50.00
57847;BME280;43675;50.030;21.952;2023-04-04T10:44:44;99155.58;;;5.18;49.47
57847;BME280;43675;50.030;21.952;2023-04-04T10:49:42;99142.46;;;5.14;49.04
57847;BME280;43675;50.030;21.952;2023-04-04T10:52:09;99143.84;;;5.17;49.24
57847;BME280;43675;50.030;21.952;2023-04-04T10:54:36;99144.63;;;5.16;49.07
57847;BME280;43675;50.030;21.952;2023-04-04T10:57:03;99143.43;;;5.14;49.07
57847;BME280;43675;50.030;21.952;2023-04-04T10:59:30;99141.49;;;5.14;49.11
57847;BME280;43675;50.030;21.952;2023-04-04T11:01:57;99141.27;;;5.14;49.12
57847;BME280;43675;50.030;21.952;2023-04-04T11:04:29;99142.83;;;5.14;48.91
57847;BME280;43675;50.030;21.952;2023-04-04T11:07:30;99138.64;;;5.11;48.94
57847;BME280;43675;50.030;21.952;2023-04-04T11:12:15;99137.55;;;5.14;48.86
57847;BME280;43675;50.030;21.952;2023-04-04T11:14:55;99129.67;;;5.23;48.91
57847;BME280;43675;50.030;21.952;2023-04-04T11:20:07;99121.05;;;5.37;48.62
57847;BME280;43675;50.030;21.952;2023-04-04T11:22:34;99124.11;;;5.49;48.36
57847;BME280;43675;50.030;21.952;2023-04-04T11:25:35;99125.17;;;5.55;48.30
57847;BME280;43675;50.030;21.952;2023-04-04T11:27:54;99128.84;;;5.56;48.30
57847;BME280;43675;50.030;21.952;2023-04-04T11:30:20;99128.99;;;5.46;48.11
57847;BME280;43675;50.030;21.952;2023-04-04T11:32:47;99131.79;;;5.36;48.11
57847;BME280;43675;50.030;21.952;2023-04-04T11:35:15;99132.53;;;5.27;48.35
57847;BME280;43675;50.030;21.952;2023-04-04T11:37:42;99131.48;;;5.16;48.28
57847;BME280;43675;50.030;21.952;2023-04-04T11:40:10;99124.23;;;5.03;48.20
57847;BME280;43675;50.030;21.952;2023-04-04T11:42:36;99120.27;;;4.99;48.14
57847;BME280;43675;50.030;21.952;2023-04-04T11:45:03;99116.61;;;5.09;48.34
57847;BME280;43675;50.030;21.952;2023-04-04T11:47:31;99107.13;;;5.29;48.32
57847;BME280;43675;50.030;21.952;2023-04-04T11:49:59;99113.85;;;5.52;48.10
57847;BME280;43675;50.030;21.952;2023-04-04T11:52:30;99115.67;;;5.60;47.99
57847;BME280;43675;50.030;21.952;2023-04-04T11:54:57;99113.58;;;5.58;48.02
57847;BME280;43675;50.030;21.952;2023-04-04T11:57:24;99119.02;;;5.62;47.92
57847;BME280;43675;50.030;21.952;2023-04-04T11:59:50;99120.66;;;5.54;47.49
57847;BME280;43675;50.030;21.952;2023-04-04T12:02:22;99110.43;;;5.33;47.42
57847;BME280;43675;50.030;21.952;2023-04-04T12:04:50;99114.70;;;5.10;47.46
57847;BME280;43675;50.030;21.952;2023-04-04T12:07:16;99113.80;;;4.90;47.66
57847;BME280;43675;50.030;21.952;2023-04-04T12:09:43;99113.65;;;4.77;48.02
57847;BME280;43675;50.030;21.952;2023-04-04T12:12:14;99123.33;;;4.71;48.04
57847;BME280;43675;50.030;21.952;2023-04-04T12:14:41;99124.38;;;4.65;48.15
57847;BME280;43675;50.030;21.952;2023-04-04T12:17:07;99128.90;;;4.61;48.15
57847;BME280;43675;50.030;21.952;2023-04-04T12:19:37;99131.20;;;4.48;48.00
57847;BME280;43675;50.030;21.952;2023-04-04T12:22:04;99128.71;;;4.40;48.14
57847;BME280;43675;50.030;21.952;2023-04-04T12:24:31;99131.08;;;4.44;48.23
57847;BME280;43675;50.030;21.952;2023-04-04T12:26:57;99122.79;;;4.55;48.19
57847;BME280;43675;50.030;21.952;2023-04-04T12:29:24;99114.35;;;4.69;48.05
57847;BME280;43675;50.030;21.952;2023-04-04T12:31:52;99121.36;;;4.84;47.95
57847;BME280;43675;50.030;21.952;2023-04-04T12:34:22;99117.90;;;4.88;47.35
57847;BME280;43675;50.030;21.952;2023-04-04T12:36:56;99106.92;;;4.95;47.06
57847;BME280;43675;50.030;21.952;2023-04-04T12:39:26;99104.95;;;5.14;47.28
57847;BME280;43675;50.030;21.952;2023-04-04T12:41:53;99103.70;;;5.28;47.08
57847;BME280;43675;50.030;21.952;2023-04-04T12:46:54;99103.94;;;5.24;46.92
57847;BME280;43675;50.030;21.952;2023-04-04T12:49:21;99104.60;;;5.14;47.06
57847;BME280;43675;50.030;21.952;2023-04-04T12:51:51;99110.41;;;5.03;46.89
57847;BME280;43675;50.030;21.952;2023-04-04T12:54:28;99110.80;;;4.95;47.34
57847;BME280;43675;50.030;21.952;2023-04-04T12:56:58;99117.27;;;4.89;47.11
57847;BME280;43675;50.030;21.952;2023-04-04T12:59:35;99111.33;;;4.77;46.98
57847;BME280;43675;50.030;21.952;2023-04-04T13:02:10;99103.31;;;4.76;47.14
57847;BME280;43675;50.030;21.952;2023-04-04T13:04:37;99108.89;;;4.91;47.29
57847;BME280;43675;50.030;21.952;2023-04-04T13:07:04;99091.80;;;5.09;46.98